createdAt,value
2023-02-19T00:01:56.128Z,97430.63
2023-02-19T00:04:22.562Z,97435.31
2023-02-19T00:06:48.988Z,97436.09
2023-02-19T00:09:15.432Z,97434.38
2023-02-19T00:11:41.988Z,97439.25
2023-02-19T00:14:08.366Z,97427.50
2023-02-19T00:16:34.784Z,97428.59
2023-02-19T00:19:01.183Z,97425.63
2023-02-19T00:21:27.592Z,97419.97
2023-02-19T00:23:53.997Z,97424.06
2023-02-19T00:26:20.407Z,97428.41
2023-02-19T00:28:46.826Z,97421.06
2023-02-19T00:31:13.663Z,97424.97
2023-02-19T00:33:40.378Z,97419.53
2023-02-19T00:36:06.759Z,97427.31
2023-02-19T00:38:33.156Z,97420.91
2023-02-19T00:40:59.547Z,97419.19
2023-02-19T00:43:25.932Z,97427.94
2023-02-19T00:45:52.306Z,97429.50
2023-02-19T00:48:18.682Z,97422.19
2023-02-19T00:50:45.089Z,97423.28
2023-02-19T00:53:11.521Z,97419.38
2023-02-19T00:55:37.906Z,97414.50
2023-02-19T00:58:04.300Z,97420.94
2023-02-19T01:00:30.694Z,97420.31
2023-02-19T05:07:05.042Z,97269.72
2023-02-19T05:09:31.420Z,97286.66
2023-02-19T05:11:57.794Z,97297.88
2023-02-19T05:14:24.178Z,97288.47
2023-02-19T05:16:50.566Z,97294.09
2023-02-19T05:19:16.967Z,97296.75
2023-02-19T05:21:43.381Z,97312.72
2023-02-19T05:24:09.768Z,97301.31
2023-02-19T05:26:36.167Z,97314.44
2023-02-19T05:29:02.552Z,97311.00
2023-02-19T05:31:29.057Z,97292.69
2023-02-19T05:33:55.594Z,97299.56
2023-02-19T05:36:21.971Z,97311.31
2023-02-19T05:38:48.351Z,97319.75
2023-02-19T05:41:14.749Z,97331.94
2023-02-19T05:43:41.140Z,97334.59
2023-02-19T05:46:07.542Z,97343.72
2023-02-19T05:48:33.950Z,97356.25
2023-02-19T05:51:00.339Z,97350.75
2023-02-19T05:53:26.731Z,97348.56
2023-02-19T05:55:53.137Z,97363.88
2023-02-19T05:58:19.532Z,97370.75
2023-02-19T06:00:45.933Z,97370.75
2023-02-19T06:03:12.316Z,97370.91
2023-02-19T06:05:38.689Z,97373.88
2023-02-19T06:08:05.083Z,97366.69
2023-02-19T06:10:31.454Z,97366.53
2023-02-19T06:12:57.839Z,97365.91
2023-02-19T06:15:24.221Z,97361.81
2023-02-19T06:17:50.623Z,97353.06
2023-02-19T06:20:16.997Z,97361.03
2023-02-19T06:22:43.385Z,97359.47
2023-02-19T06:25:09.767Z,97366.69
2023-02-19T06:27:36.162Z,97373.22
2023-02-19T06:30:02.617Z,97369.03
2023-02-19T06:32:29.074Z,97361.47
2023-02-19T06:34:55.471Z,97362.59
2023-02-19T06:37:21.894Z,97364.50
2023-02-19T06:39:48.285Z,97372.59
2023-02-19T06:42:14.671Z,97384.66
2023-02-19T06:44:41.074Z,97391.53
2023-02-19T06:47:07.499Z,97389.66
2023-02-19T06:49:33.874Z,97400.31
2023-02-19T06:52:00.254Z,97409.06
2023-02-19T06:54:26.614Z,97417.53
2023-02-19T06:56:53.025Z,97426.94
2023-02-19T06:59:19.437Z,97427.06
2023-02-19T07:01:45.823Z,97423.16
2023-02-19T07:04:12.245Z,97440.81
2023-02-19T07:06:38.624Z,97435.41
2023-02-19T07:09:05.010Z,97437.56
2023-02-19T07:11:31.397Z,97446.03
2023-02-19T07:13:57.766Z,97451.34
2023-02-19T07:16:24.180Z,97454.16
2023-02-19T07:18:50.574Z,97455.59
2023-02-19T07:21:16.964Z,97458.56
2023-02-19T07:23:43.351Z,97463.72
2023-02-19T07:26:09.741Z,97465.91
2023-02-19T07:28:36.122Z,97474.69
2023-02-19T07:31:02.616Z,97479.38
2023-02-19T07:33:29.031Z,97484.09
2023-02-19T07:35:55.423Z,97493.47
2023-02-19T07:38:21.800Z,97497.88
2023-02-19T07:40:48.171Z,97488.59
2023-02-19T07:43:14.540Z,97501.59
2023-02-19T07:45:40.942Z,97500.03
2023-02-19T07:48:07.329Z,97502.69
2023-02-19T07:50:33.736Z,97506.00
2023-02-19T07:53:00.129Z,97506.13
2023-02-19T07:55:26.517Z,97503.94
2023-02-19T07:57:52.912Z,97507.69
2023-02-19T08:00:19.280Z,97514.91
2023-02-19T08:02:45.652Z,97515.38
2023-02-19T08:05:12.052Z,97516.47
2023-02-19T08:07:38.449Z,97526.47
2023-02-19T08:10:04.850Z,97529.78
2023-02-19T08:12:31.280Z,97524.47
2023-02-19T08:14:57.666Z,97523.81
2023-02-19T08:17:24.073Z,97531.00
2023-02-19T08:19:50.457Z,97520.69
2023-02-19T08:22:16.835Z,97525.06
2023-02-19T08:24:43.225Z,97533.53
2023-02-19T08:27:09.603Z,97533.81
2023-02-19T08:29:35.980Z,97538.81
2023-02-19T08:32:02.371Z,97541.66
2023-02-19T08:34:28.742Z,97536.00
2023-02-19T08:36:55.125Z,97549.00
2023-02-19T08:39:21.516Z,97541.34
2023-02-19T08:41:47.886Z,97535.69
2023-02-19T08:44:14.301Z,97536.00
2023-02-19T08:46:40.681Z,97537.72
2023-02-19T08:49:07.068Z,97538.19
2023-02-19T08:51:33.438Z,97537.72
2023-02-19T08:53:59.824Z,97543.19
2023-02-19T08:56:26.196Z,97545.38
2023-02-19T08:58:52.588Z,97548.06
2023-02-19T09:01:19.173Z,97548.06
2023-02-19T09:03:45.581Z,97539.44
2023-02-19T09:06:12.081Z,97539.44
2023-02-19T09:08:38.661Z,97541.75
2023-02-19T09:11:05.036Z,97543.00
2023-02-19T09:13:31.441Z,97545.66
2023-02-19T09:15:57.911Z,97548.03
2023-02-19T09:18:24.340Z,97540.97
2023-02-19T09:20:50.730Z,97533.91
2023-02-19T09:23:17.117Z,97531.69
2023-02-19T09:25:43.501Z,97536.25
2023-02-19T09:28:09.906Z,97534.09
2023-02-19T09:30:36.321Z,97530.78
2023-02-19T09:33:02.811Z,97541.91
2023-02-19T09:35:29.196Z,97537.50
2023-02-19T09:37:55.562Z,97537.81
2023-02-19T09:40:21.985Z,97542.50
2023-02-19T09:42:48.370Z,97540.94
2023-02-19T09:45:14.737Z,97540.16
2023-02-19T09:47:41.114Z,97538.28
2023-02-19T09:50:07.532Z,97540.28
2023-02-19T09:52:33.911Z,97539.84
2023-02-19T09:55:00.278Z,97546.25
2023-02-19T09:57:26.672Z,97546.38
2023-02-19T09:59:53.055Z,97543.59
2023-02-19T10:02:19.478Z,97539.38
2023-02-19T10:04:45.945Z,97536.41
2023-02-19T10:07:12.396Z,97537.63
2023-02-19T10:09:38.872Z,97536.25
2023-02-19T10:12:05.254Z,97533.06
2023-02-19T10:14:31.622Z,97533.84
2023-02-19T10:16:58.019Z,97537.00
2023-02-19T10:19:24.391Z,97531.66
2023-02-19T10:21:50.901Z,97536.19
2023-02-19T10:24:17.263Z,97532.75
2023-02-19T10:26:43.626Z,97530.09
2023-02-19T10:29:10.031Z,97527.13
2023-02-19T10:31:36.593Z,97527.13
2023-02-19T10:34:03.022Z,97525.56
2023-02-19T10:36:31.963Z,97533.22
2023-02-19T10:38:58.750Z,97529.31
2023-02-19T10:41:25.162Z,97535.88
2023-02-19T10:43:51.544Z,97538.56
2023-02-19T10:46:17.948Z,97530.56
2023-02-19T10:48:44.362Z,97528.22
2023-02-19T10:51:11.091Z,97533.84
2023-02-19T10:53:37.651Z,97529.44
2023-02-19T10:56:04.033Z,97527.91
2023-02-19T10:58:30.423Z,97528.03
2023-02-19T11:00:56.809Z,97528.69
2023-02-19T11:03:23.187Z,97527.94
2023-02-19T11:05:49.563Z,97524.81
2023-02-19T11:08:15.927Z,97528.72
2023-02-19T11:10:42.350Z,97520.06
2023-02-19T11:13:08.765Z,97522.56
2023-02-19T11:15:35.171Z,97518.66
2023-02-19T11:18:01.566Z,97511.31
2023-02-19T11:20:27.953Z,97500.00
2023-02-19T11:22:54.352Z,97509.41
2023-02-19T11:25:20.722Z,97502.78
2023-02-19T11:27:47.114Z,97484.94
2023-02-19T11:30:13.618Z,97486.06
2023-02-19T11:32:40.025Z,97483.25
2023-02-19T11:35:06.405Z,97483.06
2023-02-19T11:37:32.801Z,97484.34
2023-02-19T11:39:59.188Z,97474.47
2023-02-19T11:42:27.671Z,97468.50
2023-02-19T11:44:55.402Z,97472.59
2023-02-19T11:47:21.780Z,97466.16
2023-02-19T11:49:48.174Z,97468.50
2023-02-19T11:52:14.551Z,97469.94
2023-02-19T11:54:40.938Z,97465.84
2023-02-19T11:57:07.337Z,97461.75
2023-02-19T11:59:33.698Z,97457.50
2023-02-19T12:02:00.124Z,97458.28
2023-02-19T12:04:26.564Z,97452.97
2023-02-19T12:06:52.982Z,97437.19
2023-02-19T12:09:19.386Z,97439.53
2023-02-19T12:11:45.779Z,97440.50
2023-02-19T12:14:12.171Z,97438.75
2023-02-19T12:16:38.610Z,97441.16
2023-02-19T12:19:05.029Z,97446.44
2023-02-19T12:21:31.433Z,97441.69
2023-02-19T12:23:57.823Z,97429.00
2023-02-19T12:26:24.214Z,97433.09
2023-02-19T12:28:50.756Z,97441.22
2023-02-19T12:31:17.234Z,97440.78
2023-02-19T12:33:43.711Z,97439.22
2023-02-19T12:36:10.468Z,97432.00
2023-02-19T12:38:37.124Z,97422.88
2023-02-19T12:41:03.530Z,97413.69
2023-02-19T12:43:29.907Z,97420.22
2023-02-19T12:45:56.322Z,97413.69
2023-02-19T12:48:22.723Z,97414.78
2023-02-19T12:50:49.105Z,97411.91
2023-02-19T12:53:15.484Z,97406.91
2023-02-19T12:55:41.887Z,97401.16
2023-02-19T12:58:08.254Z,97401.94
2023-02-19T13:00:34.623Z,97406.78
2023-02-19T13:03:01.003Z,97397.56
2023-02-19T13:05:27.392Z,97403.50
2023-02-19T13:07:53.774Z,97403.34
2023-02-19T13:10:20.145Z,97406.78
2023-02-19T13:12:46.532Z,97409.13
2023-02-19T13:15:12.935Z,97400.38
2023-02-19T13:17:39.349Z,97399.25
2023-02-19T13:20:05.718Z,97398.47
2023-02-19T13:22:32.121Z,97391.72
2023-02-19T13:24:58.511Z,97396.91
2023-02-19T13:27:24.928Z,97397.81
2023-02-19T13:29:52.918Z,97390.94
2023-02-19T13:32:20.006Z,97395.16
2023-02-19T13:34:46.502Z,97396.72
2023-02-19T13:37:12.864Z,97408.34
2023-02-19T13:39:39.265Z,97407.88
2023-02-19T13:42:05.670Z,97406.00
2023-02-19T13:44:32.071Z,97411.00
2023-02-19T13:46:58.447Z,97394.25
2023-02-19T13:49:24.819Z,97395.94
2023-02-19T13:51:51.205Z,97392.38
2023-02-19T13:54:17.602Z,97385.59
2023-02-19T13:56:43.981Z,97391.28
2023-02-19T13:59:10.344Z,97381.72
2023-02-19T14:01:36.764Z,97388.81
2023-02-19T14:04:03.135Z,97393.78
2023-02-19T14:06:29.510Z,97389.19
2023-02-19T14:08:55.888Z,97371.63
2023-02-19T14:11:22.267Z,97366.19
2023-02-19T14:13:48.663Z,97366.94
2023-02-19T14:16:15.042Z,97376.97
2023-02-19T14:18:41.449Z,97369.75
2023-02-19T14:21:07.844Z,97351.44
2023-02-19T14:23:34.234Z,97356.44
2023-02-19T14:26:00.599Z,97369.28
2023-02-19T14:28:27.002Z,97362.75
2023-02-19T14:30:53.442Z,97371.19
2023-02-19T14:33:19.837Z,97368.19
2023-02-19T14:35:46.217Z,97377.50
2023-02-19T14:38:12.589Z,97402.34
2023-02-19T14:40:38.978Z,97402.72
2023-02-19T14:43:05.373Z,97406.16
2023-02-19T14:45:31.757Z,97407.84
2023-02-19T14:47:58.135Z,97407.69
2023-02-19T14:50:24.518Z,97415.34
2023-02-19T14:52:50.894Z,97413.59
2023-02-19T14:55:17.288Z,97421.94
2023-02-19T14:57:43.668Z,97422.72
2023-02-19T15:00:10.061Z,97422.25
2023-02-19T15:02:36.477Z,97416.94
2023-02-19T15:05:02.953Z,97424.53
2023-02-19T15:07:29.356Z,97408.66
2023-02-19T15:09:55.776Z,97401.47
2023-02-19T15:12:22.170Z,97397.69
2023-02-19T15:14:48.578Z,97398.59
2023-02-19T15:17:14.944Z,97389.72
2023-02-19T15:19:41.326Z,97391.28
2023-02-19T15:22:07.719Z,97396.91
2023-02-19T15:24:34.091Z,97391.22
2023-02-19T15:27:00.460Z,97395.50
2023-02-19T15:29:26.837Z,97398.59
2023-02-19T15:31:53.270Z,97403.59
2023-02-19T15:34:19.735Z,97401.56
2023-02-19T15:36:46.105Z,97409.91
2023-02-19T15:39:12.481Z,97408.81
2023-02-19T15:41:38.921Z,97408.81
2023-02-19T15:44:05.302Z,97411.47
2023-02-19T15:46:31.698Z,97422.13
2023-02-19T15:48:58.082Z,97426.69
2023-02-19T15:51:24.464Z,97430.56
2023-02-19T15:53:50.835Z,97429.66
2023-02-19T15:56:17.230Z,97432.63
2023-02-19T15:58:43.602Z,97434.84
2023-02-19T16:01:10.243Z,97441.88
2023-02-19T16:03:36.741Z,97434.84
2023-02-19T16:06:03.144Z,97438.13
2023-02-19T16:08:30.952Z,97437.78
2023-02-19T16:10:57.412Z,97439.03
2023-02-19T16:13:23.782Z,97445.44
2023-02-19T16:15:50.218Z,97445.50
2023-02-19T16:18:16.600Z,97454.72
2023-02-19T16:20:42.963Z,97456.28
2023-02-19T16:23:09.339Z,97455.78
2023-02-19T16:25:35.717Z,97467.72
2023-02-19T16:28:02.106Z,97468.50
2023-02-19T16:30:28.522Z,97466.63
2023-02-19T16:32:54.937Z,97470.41
2023-02-19T16:35:21.327Z,97479.03
2023-02-19T16:37:47.695Z,97483.56
2023-02-19T16:40:16.618Z,97482.28
2023-02-19T16:42:43.146Z,97500.00
2023-02-19T16:45:09.536Z,97499.69
2023-02-19T16:47:35.980Z,97505.22
2023-02-19T16:50:02.401Z,97500.31
2023-02-19T16:52:28.766Z,97501.78
2023-02-19T16:54:55.145Z,97504.72
2023-02-19T16:57:21.521Z,97504.09
2023-02-19T16:59:47.902Z,97509.75
2023-02-19T17:02:14.297Z,97510.53
2023-02-19T17:04:40.663Z,97518.72
2023-02-19T17:07:07.024Z,97521.63
2023-02-19T17:09:33.409Z,97536.06
2023-02-19T17:11:59.769Z,97532.75
2023-02-19T17:14:26.139Z,97538.09
2023-02-19T17:16:52.505Z,97551.72
2023-02-19T17:19:18.910Z,97544.66
2023-02-19T17:21:45.320Z,97542.63
2023-02-19T17:24:11.917Z,97541.38
2023-02-19T17:26:38.362Z,97545.28
2023-02-19T17:29:04.738Z,97551.72
2023-02-19T17:31:31.182Z,97566.91
2023-02-19T17:33:57.676Z,97574.91
2023-02-19T17:36:24.068Z,97584.00
2023-02-19T17:38:50.460Z,97588.22
2023-02-19T17:41:16.869Z,97581.19
2023-02-19T17:43:43.226Z,97602.69
2023-02-19T17:46:09.642Z,97596.09
2023-02-19T17:48:36.024Z,97599.38
2023-02-19T17:51:02.409Z,97608.94
2023-02-19T17:53:28.786Z,97607.97
2023-02-19T17:55:55.192Z,97603.75
2023-02-19T17:58:21.605Z,97601.09
2023-02-19T18:00:47.982Z,97613.81
2023-02-19T18:03:14.367Z,97609.72
2023-02-19T18:05:40.763Z,97613.94
2023-02-19T18:08:07.126Z,97609.59
2023-02-19T18:10:33.495Z,97608.03
2023-02-19T18:12:59.886Z,97613.84
2023-02-19T18:15:26.251Z,97612.75
2023-02-19T18:17:52.869Z,97616.38
2023-02-19T18:20:19.253Z,97616.50
2023-02-19T18:22:45.643Z,97612.88
2023-02-19T18:25:12.020Z,97613.53
2023-02-19T18:27:38.399Z,97614.13
2023-02-19T18:30:04.846Z,97602.69
2023-02-19T18:32:31.267Z,97604.69
2023-02-19T18:34:57.653Z,97607.22
2023-02-19T18:37:24.031Z,97601.13
2023-02-19T18:39:50.414Z,97606.91
2023-02-19T18:42:16.786Z,97602.81
2023-02-19T18:44:43.154Z,97605.16
2023-02-19T18:47:09.530Z,97606.13
2023-02-19T18:49:35.899Z,97610.81
2023-02-19T18:52:02.279Z,97616.59
2023-02-19T18:54:28.654Z,97608.44
2023-02-19T18:56:55.040Z,97602.97
2023-02-19T18:59:21.430Z,97605.16
2023-02-19T19:01:47.884Z,97616.75
2023-02-19T19:04:14.318Z,97616.44
2023-02-19T19:06:40.720Z,97613.47
2023-02-19T19:09:07.116Z,97620.06
2023-02-19T19:11:33.493Z,97628.53
2023-02-19T19:13:59.873Z,97619.09
2023-02-19T19:16:26.253Z,97612.34
2023-02-19T19:18:52.647Z,97607.53
2023-02-19T19:21:19.031Z,97612.66
2023-02-19T19:23:45.418Z,97598.84
2023-02-19T19:26:12.049Z,97607.53
2023-02-19T19:28:40.545Z,97596.38
2023-02-19T19:31:07.055Z,97590.97
2023-02-19T19:33:33.479Z,97597.28
2023-02-19T19:35:59.867Z,97604.03
2023-02-19T19:38:26.237Z,97608.91
2023-02-19T19:40:52.614Z,97595.59
2023-02-19T19:43:18.986Z,97607.94
2023-02-19T19:45:45.427Z,97590.84
2023-02-19T19:48:11.928Z,97589.41
2023-02-19T19:50:38.314Z,97596.00
2023-02-19T19:53:04.680Z,97607.16
2023-02-19T19:55:31.061Z,97619.84
2023-02-19T19:57:57.449Z,97617.69
2023-02-19T20:00:23.855Z,97601.03
2023-02-19T20:02:50.266Z,97605.28
2023-02-19T20:05:16.669Z,97605.16
2023-02-19T20:07:43.052Z,97612.34
2023-02-19T20:10:09.418Z,97615.81
2023-02-19T20:12:35.794Z,97613.13
2023-02-19T20:15:02.174Z,97608.13
2023-02-19T20:17:28.542Z,97610.91
2023-02-19T20:19:54.932Z,97624.56
2023-02-19T20:22:21.639Z,97637.56
2023-02-19T20:24:48.026Z,97650.09
2023-02-19T20:27:14.408Z,97656.06
2023-02-19T20:29:40.791Z,97662.78
2023-02-19T20:32:07.211Z,97676.41
2023-02-19T20:34:33.606Z,97674.53
2023-02-19T20:36:59.996Z,97679.25
2023-02-19T20:39:26.382Z,97679.38
2023-02-19T20:41:52.795Z,97671.56
2023-02-19T20:44:19.180Z,97667.19
2023-02-19T20:46:45.622Z,97666.84
2023-02-19T20:49:12.016Z,97663.09
2023-02-19T20:51:38.396Z,97653.81
2023-02-19T20:54:04.789Z,97650.56
2023-02-19T20:56:31.269Z,97654.47
2023-02-19T20:58:57.652Z,97666.53
2023-02-19T21:01:24.049Z,97660.34
2023-02-19T21:03:50.466Z,97661.63
2023-02-19T21:06:16.864Z,97669.94
2023-02-19T21:08:43.251Z,97669.50
2023-02-19T21:11:09.615Z,97678.91
2023-02-19T21:13:36.245Z,97685.66
2023-02-19T21:16:02.680Z,97686.09
2023-02-19T21:18:29.089Z,97688.78
2023-02-19T21:20:55.464Z,97686.88
2023-02-19T21:23:21.830Z,97701.66
2023-02-19T21:25:48.198Z,97696.59
2023-02-19T21:28:14.576Z,97703.94
2023-02-19T21:30:41.053Z,97702.38
2023-02-19T21:33:07.493Z,97701.28
2023-02-19T21:35:33.882Z,97699.09
2023-02-19T21:38:00.277Z,97698.63
2023-02-19T21:40:26.643Z,97705.06
2023-02-19T21:42:53.033Z,97704.13
2023-02-19T21:45:19.408Z,97709.00
2023-02-19T21:47:45.781Z,97713.81
2023-02-19T21:50:12.179Z,97713.81
2023-02-19T21:52:38.568Z,97715.72
2023-02-19T21:55:04.941Z,97711.03
2023-02-19T21:57:31.424Z,97705.06
2023-02-19T21:59:57.868Z,97707.41
2023-02-19T22:02:24.258Z,97715.09
2023-02-19T22:04:50.654Z,97712.72
2023-02-19T22:07:17.021Z,97720.41
2023-02-19T22:09:43.393Z,97713.19
2023-02-19T22:12:09.814Z,97718.97
2023-02-19T22:14:36.195Z,97716.31
2023-02-19T22:17:02.604Z,97719.09
2023-02-19T22:19:28.991Z,97727.16
2023-02-19T22:21:55.373Z,97719.44
2023-02-19T22:24:21.770Z,97725.75
2023-02-19T22:26:48.159Z,97723.22
2023-02-19T22:29:14.550Z,97723.22
2023-02-19T22:31:41.065Z,97726.84
2023-02-19T22:34:07.495Z,97719.03
2023-02-19T22:36:33.905Z,97719.94
2023-02-19T22:39:00.325Z,97725.47
2023-02-19T22:41:26.738Z,97722.59
2023-02-19T22:43:53.146Z,97714.91
2023-02-19T22:46:19.626Z,97710.88
2023-02-19T22:48:46.048Z,97708.81
2023-02-19T22:51:12.462Z,97703.34
2023-02-19T22:53:38.862Z,97701.78
2023-02-19T22:56:05.238Z,97702.44
2023-02-19T22:58:31.726Z,97705.22
2023-02-19T23:00:58.152Z,97701.31
2023-02-19T23:03:24.550Z,97696.44
2023-02-19T23:05:50.936Z,97694.09
2023-02-19T23:08:17.342Z,97698.50
2023-02-19T23:10:43.741Z,97694.75
2023-02-19T23:13:10.130Z,97691.00
2023-02-19T23:15:36.535Z,97695.53
2023-02-19T23:18:02.918Z,97701.66
2023-02-19T23:20:29.321Z,97700.41
2023-02-19T23:22:55.739Z,97690.69
2023-02-19T23:25:22.133Z,97697.59
2023-02-19T23:27:48.525Z,97697.59
2023-02-19T23:30:15.005Z,97704.00
2023-02-19T23:32:41.430Z,97704.00
2023-02-19T23:35:07.826Z,97698.53
2023-02-19T23:37:34.232Z,97710.44
2023-02-19T23:40:00.620Z,97710.63
2023-02-19T23:42:26.999Z,97711.09
2023-02-19T23:44:53.373Z,97708.44
2023-02-19T23:47:19.765Z,97701.84
2023-02-19T23:49:46.147Z,97701.38
2023-02-19T23:52:12.564Z,97702.50
2023-02-19T23:54:38.941Z,97699.03
2023-02-19T23:57:05.344Z,97699.81
2023-02-19T23:59:31.752Z,97695.91
